Time;durP1;ratioP1;P1;durP2;ratioP2;P2;SDS_P1;SDS_P2;PMS_P1;PMS_P2;Temp;Humidity;BMP_temperature;BMP_pressure;BME280_temperature;BME280_humidity;BME280_pressure;Samples;Min_cycle;Max_cycle;Signal;HPM_P1;HPM_P2
2022/01/18 00:01:51;;;;;;;16.57;10.70;;;4.00;99.90;;;4.17;75.19;99410.84;4951336;29;20058;-38
2022/01/18 00:04:21;;;;;;;17.10;10.70;;;4.00;99.90;;;4.13;75.68;99411.94;4950508;29;20059;-38
2022/01/18 00:06:52;;;;;;;17.43;10.23;;;4.00;99.90;;;4.16;75.30;99414.41;4950166;29;20043;-38
2022/01/18 00:09:24;;;;;;;15.60;10.23;;;4.10;99.90;;;4.14;74.83;99406.56;4949569;29;20051;-38
2022/01/18 00:12:27;;;;;;;17.20;9.03;;;4.00;99.90;;;4.10;74.81;99406.81;4949476;29;20272;-38
2022/01/18 00:15:05;;;;;;;15.87;10.03;;;4.00;99.90;;;4.14;75.72;99409.19;4950120;29;20059;-38
2022/01/18 00:17:42;;;;;;;16.50;8.50;;;4.00;99.90;;;4.14;75.23;99403.91;4951208;29;20065;-39
2022/01/18 00:20:17;;;;;;;15.03;8.47;;;4.00;99.90;;;4.10;75.20;99406.81;4949696;29;20067;-39
2022/01/18 00:22:45;;;;;;;17.40;10.37;;;4.00;99.90;;;4.07;75.49;99414.84;4949440;29;20057;-38
2022/01/18 00:25:13;;;;;;;18.20;10.50;;;4.00;99.90;;;4.07;75.77;99412.22;4948878;29;20051;-39
2022/01/18 00:27:41;;;;;;;19.80;11.13;;;4.00;99.90;;;4.15;75.43;99415.34;4948694;29;20299;-39
2022/01/18 00:30:35;;;;;;;17.07;10.07;;;4.10;99.90;;;4.24;75.43;99420.13;4948963;29;20047;-38
2022/01/18 00:33:16;;;;;;;16.93;9.33;;;4.20;99.90;;;4.29;75.04;99419.91;4949481;29;20055;-39
2022/01/18 00:35:46;;;;;;;14.03;9.03;;;4.20;99.90;;;4.29;75.11;99435.72;4949809;29;20047;-39
2022/01/18 00:38:27;;;;;;;14.37;8.90;;;4.20;99.90;;;4.34;75.11;99431.94;4932722;29;20261;-38
2022/01/18 00:40:57;;;;;;;17.17;9.83;;;4.30;99.90;;;4.36;74.67;99429.19;4948362;29;20077;-39
2022/01/18 00:43:26;;;;;;;16.67;9.50;;;4.30;99.90;;;4.38;75.09;99437.03;4948287;29;20067;-39
2022/01/18 00:45:54;;;;;;;19.00;10.07;;;4.30;99.90;;;4.42;74.83;99433.31;4947814;29;20652;-39
2022/01/18 00:48:22;;;;;;;17.47;9.50;;;4.30;99.90;;;4.36;74.76;99438.91;4950060;29;20043;-38
2022/01/18 00:50:52;;;;;;;18.07;9.80;;;4.30;99.90;;;4.32;74.83;99436.44;4948860;29;20054;-38
2022/01/18 00:53:21;;;;;;;17.63;10.80;;;4.20;99.90;;;4.27;75.34;99437.59;4948654;29;20284;-38
2022/01/18 00:55:59;;;;;;;19.17;9.53;;;4.20;99.90;;;4.31;75.01;99433.88;4948965;29;20057;-38
2022/01/18 00:58:28;;;;;;;16.90;10.47;;;4.20;99.90;;;4.24;75.17;99435.94;4949293;29;20061;-38
2022/01/18 01:00:56;;;;;;;17.17;11.40;;;4.10;99.90;;;4.24;75.19;99435.94;4949384;29;20341;-38
2022/01/18 01:03:24;;;;;;;17.57;10.07;;;4.10;99.90;;;4.26;74.67;99443.78;4948849;29;20047;-38
2022/01/18 01:06:02;;;;;;;17.50;10.63;;;4.10;99.90;;;4.31;75.31;99447.06;4947546;28;20055;-38
2022/01/18 01:08:31;;;;;;;17.40;9.90;;;4.20;99.90;;;4.29;74.95;99441.00;4949410;29;20055;-38
2022/01/18 01:11:00;;;;;;;19.77;10.83;;;4.20;99.90;;;4.32;74.84;99443.47;4948395;29;20249;-38
2022/01/18 01:13:30;;;;;;;17.07;10.30;;;4.20;99.90;;;4.36;75.39;99441.53;4945784;29;20055;-38
2022/01/18 01:43:31;;;;;;;16.13;10.83;;;4.10;99.90;;;4.21;75.41;99457.22;4948860;29;20059;-38
2022/01/18 01:46:02;;;;;;;19.60;11.17;;;4.10;99.90;;;4.25;75.15;99460.56;4949308;29;20081;-39
2022/01/18 01:48:30;;;;;;;18.20;10.63;;;4.10;99.90;;;4.33;74.96;99466.28;4947737;29;20051;-39
2022/01/18 01:51:03;;;;;;;15.20;9.20;;;4.20;99.90;;;4.36;74.91;99467.91;4948574;29;20066;-38
2022/01/18 01:53:34;;;;;;;18.87;9.77;;;4.20;99.90;;;4.38;74.96;99466.91;4949125;29;20057;-39
2022/01/18 01:56:04;;;;;;;20.73;10.23;;;4.20;99.90;;;4.38;75.23;99474.81;4948734;29;20047;-39
2022/01/18 01:58:32;;;;;;;16.57;9.37;;;4.20;99.90;;;4.34;74.62;99475.88;4949201;29;20047;-39
2022/01/18 02:01:06;;;;;;;15.77;9.63;;;4.20;99.90;;;4.36;75.00;99481.94;4948347;29;20089;-39
2022/01/18 02:03:35;;;;;;;17.00;10.33;;;4.30;99.90;;;4.40;74.35;99483.50;4946812;29;20231;-39
2022/01/18 02:06:06;;;;;;;19.00;11.43;;;4.20;99.90;;;4.39;75.54;99476.50;4947757;29;20058;-39
2022/01/18 02:08:34;;;;;;;18.33;10.10;;;4.20;99.90;;;4.34;74.86;99475.88;4948300;29;20066;-39
2022/01/18 02:11:02;;;;;;;17.70;11.40;;;4.20;99.90;;;4.28;75.01;99469.13;4948389;29;20055;-39
2022/01/18 02:13:33;;;;;;;18.43;11.50;;;4.10;99.90;;;4.27;75.31;99467.44;4947375;29;20055;-39
2022/01/18 02:24:10;;;;;;;22.77;11.27;;;4.30;99.90;;;4.52;74.59;99468.84;4951337;29;20230;-39
2022/01/18 02:26:38;;;;;;;20.43;11.93;;;4.40;99.90;;;4.56;74.39;99474.81;4952254;29;20066;-39
2022/01/18 02:29:10;;;;;;;18.90;10.93;;;4.40;99.90;;;4.61;74.35;99472.78;4951466;29;20055;-39
2022/01/18 02:31:39;;;;;;;21.23;11.83;;;4.40;99.90;;;4.60;74.15;99457.91;4951146;29;20065;-39
2022/01/18 02:34:20;;;;;;;22.87;11.37;;;4.40;99.90;;;4.64;74.48;99472.63;4951659;29;20082;-39
2022/01/18 02:36:50;;;;;;;19.47;12.13;;;4.50;99.90;;;4.66;74.52;99479.53;4945985;29;20051;-39
2022/01/18 02:39:22;;;;;;;21.07;11.33;;;4.40;99.90;;;4.70;74.59;99472.31;4951954;29;20055;-39
2022/01/18 02:42:02;;;;;;;18.20;11.53;;;4.50;99.90;;;4.68;74.62;99472.38;4952514;29;20369;-39
2022/01/18 02:44:32;;;;;;;18.07;11.13;;;4.50;99.90;;;4.68;74.26;99477.66;4952299;29;20354;-39
2022/01/18 02:47:01;;;;;;;18.97;11.97;;;4.40;99.90;;;4.66;74.38;99470.78;4952795;29;20245;-39
2022/01/18 02:49:29;;;;;;;21.23;11.33;;;4.30;99.90;;;4.67;73.99;99470.69;4950982;29;20055;-39
2022/01/18 02:51:59;;;;;;;18.80;11.60;;;4.40;99.90;;;4.67;74.55;99469.81;4951918;29;20057;-39
2022/01/18 02:54:27;;;;;;;18.07;11.10;;;4.40;99.90;;;4.68;73.93;99469.75;4950246;29;20070;-39
2022/01/18 02:57:01;;;;;;;20.10;11.27;;;4.40;99.90;;;4.69;74.11;99465.31;4951677;29;20047;-39
2022/01/18 03:05:15;;;;;;;18.40;11.33;;;4.40;99.90;;;4.68;74.21;99453.06;4950509;29;20248;-39
2022/01/18 03:07:44;;;;;;;21.37;12.27;;;4.40;99.90;;;4.67;74.54;99460.16;4951033;29;20063;-39
2022/01/18 03:10:14;;;;;;;24.43;12.03;;;4.40;99.90;;;4.65;74.37;99458.50;4950913;29;20077;-39
2022/01/18 03:12:43;;;;;;;19.60;11.33;;;4.40;99.90;;;4.66;73.80;99465.50;4943107;29;20047;-39
2022/01/18 03:15:11;;;;;;;23.90;12.23;;;4.40;99.90;;;4.64;73.98;99459.44;4951124;29;20246;-39
2022/01/18 03:17:40;;;;;;;17.23;10.90;;;4.40;99.90;;;4.62;74.54;99461.31;4952578;29;20051;-39
2022/01/18 03:20:11;;;;;;;21.30;13.07;;;4.40;99.90;;;4.57;74.00;99465.97;4947009;29;20063;-39
2022/01/18 03:22:40;;;;;;;20.80;12.27;;;4.30;99.90;;;4.52;74.08;99467.06;4949784;29;20055;-39
2022/01/18 03:28:05;;;;;;;24.27;13.57;;;4.20;99.90;;;4.49;73.72;99459.28;4949444;28;20288;-39
2022/01/18 03:30:41;;;;;;;22.10;12.43;;;4.20;99.90;;;4.51;74.57;99464.50;4950007;29;20051;-39
2022/01/18 03:33:18;;;;;;;27.77;12.33;;;4.20;99.90;;;4.48;73.68;99462.03;4949773;29;20391;-39
2022/01/18 03:35:48;;;;;;;21.23;12.30;;;4.20;99.90;;;4.43;74.46;99456.97;4944005;29;20061;-39
2022/01/18 03:38:19;;;;;;;23.33;12.87;;;4.10;99.90;;;4.41;74.18;99464.09;4949268;29;20047;-39
2022/01/18 03:40:48;;;;;;;22.73;13.03;;;4.10;99.90;;;4.40;73.58;99457.13;4948623;29;20057;-39
2022/01/18 03:43:17;;;;;;;23.03;13.80;;;4.10;99.90;;;4.43;73.78;99464.88;4950629;29;20078;-39
2022/01/18 03:45:46;;;;;;;19.80;12.47;;;4.10;99.90;;;4.40;73.97;99457.13;4949658;29;20237;-39
2022/01/18 03:48:55;;;;;;;21.00;12.33;;;4.10;99.90;;;4.35;74.22;99459.16;4948506;29;20055;-39
2022/01/18 03:51:15;;;;;;;19.10;11.77;;;4.10;99.90;;;4.32;73.60;99460.16;4943593;29;20065;-39
2022/01/18 03:53:43;;;;;;;20.73;11.60;;;4.00;99.90;;;4.36;74.55;99458.19;4950176;29;20051;-39
2022/01/18 03:56:11;;;;;;;25.07;12.93;;;4.10;99.90;;;4.41;73.86;99468.53;4949848;29;20047;-39
2022/01/18 03:58:40;;;;;;;22.40;13.00;;;4.00;99.90;;;4.43;73.97;99469.31;4949844;29;20061;-39
2022/01/18 04:01:08;;;;;;;22.67;11.43;;;4.10;99.90;;;4.47;73.57;99471.69;4949748;29;20051;-39
2022/01/18 04:03:36;;;;;;;24.30;12.13;;;4.20;99.90;;;4.50;73.73;99468.91;4948723;29;20059;-39
2022/01/18 04:06:04;;;;;;;26.83;13.43;;;4.20;99.90;;;4.56;74.62;99466.91;4948875;29;20062;-39
2022/01/18 04:08:32;;;;;;;21.37;12.67;;;4.30;99.90;;;4.59;73.82;99470.22;4950134;29;20059;-39
2022/01/18 04:11:00;;;;;;;20.57;10.77;;;4.30;99.90;;;4.60;74.09;99482.50;4949149;29;20058;-39
2022/01/18 04:13:28;;;;;;;19.00;12.20;;;4.30;99.90;;;4.62;74.07;99485.06;4949317;29;20047;-39
2022/01/18 04:15:57;;;;;;;22.87;14.70;;;4.30;99.90;;;4.62;73.98;99485.91;4947829;29;20341;-39
2022/01/18 04:18:35;;;;;;;25.47;13.47;;;4.30;99.90;;;4.65;73.98;99484.88;4949625;29;20059;-39
2022/01/18 04:29:06;;;;;;;24.03;12.97;;;4.30;99.90;;;4.65;73.85;99491.03;4948685;29;20047;-39
2022/01/18 04:31:35;;;;;;;22.07;12.63;;;4.40;99.90;;;4.69;73.31;99489.06;4933070;29;20065;-39
2022/01/18 04:34:04;;;;;;;28.23;14.20;;;4.40;99.90;;;4.70;73.34;99490.78;4949116;29;20051;-39
2022/01/18 04:36:32;;;;;;;24.63;14.60;;;4.40;99.90;;;4.72;73.69;99486.28;4949342;29;20241;-39
2022/01/18 04:39:00;;;;;;;23.77;12.50;;;4.50;99.90;;;4.73;73.60;99491.50;4931458;28;20131;-39
2022/01/18 04:41:30;;;;;;;25.20;13.40;;;4.50;99.90;;;4.71;73.67;99501.25;4949062;29;20073;-39
2022/01/18 04:49:16;;;;;;;24.17;13.30;;;4.40;99.90;;;4.65;73.54;99513.91;4947869;29;20047;-39
2022/01/18 04:51:46;;;;;;;29.70;14.33;;;4.40;99.90;;;4.61;73.90;99507.91;4948103;29;20055;-39
2022/01/18 04:54:16;;;;;;;29.17;14.60;;;4.30;99.90;;;4.61;74.05;99497.38;4948646;29;20435;-39
2022/01/18 04:59:14;;;;;;;26.77;14.77;;;4.20;99.90;;;4.49;73.60;99495.38;4948607;29;20073;-39
2022/01/18 05:01:46;;;;;;;28.50;13.57;;;4.20;99.90;;;4.47;74.28;99507.78;4941331;29;20639;-39
2022/01/18 05:04:15;;;;;;;27.48;14.10;;;4.20;99.90;;;4.50;74.25;99500.56;4947910;29;20074;-39
2022/01/18 05:06:44;;;;;;;28.53;13.63;;;4.20;99.90;;;4.50;73.94;99500.56;4948188;29;20059;-39
2022/01/18 05:09:12;;;;;;;23.63;13.10;;;4.30;99.90;;;4.48;73.93;99509.50;4948149;29;20658;-39
2022/01/18 05:12:03;;;;;;;30.47;14.90;;;4.20;99.90;;;4.51;73.99;99504.06;4949243;29;20053;-39
2022/01/18 05:14:36;;;;;;;24.63;13.77;;;4.20;99.90;;;4.51;74.46;99510.19;4948230;29;20249;-39
2022/01/18 05:20:36;;;;;;;29.92;14.38;;;4.30;99.90;;;4.56;73.99;99507.31;4948733;29;20063;-39
2022/01/18 05:23:02;;;;;;;28.10;13.97;;;4.30;99.90;;;4.60;74.15;99492.19;4924567;29;20063;-39
2022/01/18 05:25:35;;;;;;;26.53;14.17;;;4.40;99.90;;;4.64;74.14;99497.22;4948855;29;20065;-39
2022/01/18 05:28:06;;;;;;;29.67;16.10;;;4.40;99.90;;;4.65;73.50;99503.34;4948198;29;20371;-39
2022/01/18 05:30:34;;;;;;;26.67;14.83;;;4.40;99.90;;;4.63;73.75;99508.69;4947616;29;20065;-39
2022/01/18 05:33:08;;;;;;;31.88;15.23;;;4.40;99.90;;;4.65;73.64;99509.50;4949661;29;20246;-39
2022/01/18 05:35:37;;;;;;;27.77;13.40;;;4.40;99.90;;;4.67;73.40;99515.56;4948801;29;20276;-39
2022/01/18 05:38:06;;;;;;;26.80;14.40;;;4.40;99.90;;;4.68;74.24;99517.25;4947189;29;20249;-39
2022/01/18 05:40:34;;;;;;;26.53;14.43;;;4.40;99.90;;;4.70;73.52;99514.53;4948827;29;20124;-39
2022/01/18 05:43:02;;;;;;;26.27;15.53;;;4.40;99.90;;;4.74;73.71;99511.66;4948316;29;20059;-39
2022/01/18 05:45:31;;;;;;;26.23;13.47;;;4.50;99.90;;;4.74;73.70;99510.81;4947917;29;20081;-39
2022/01/18 05:47:59;;;;;;;25.87;15.03;;;4.50;99.90;;;4.76;74.01;99511.56;4948978;29;20063;-39
2022/01/18 05:50:28;;;;;;;23.83;12.67;;;4.50;99.90;;;4.76;73.64;99502.81;4947768;28;20055;-39
2022/01/18 05:52:56;;;;;;;24.40;13.33;;;4.50;99.90;;;4.73;73.70;99494.13;4951766;29;20043;-39
2022/01/18 05:55:24;;;;;;;30.83;15.10;;;4.50;99.90;;;4.72;73.51;99497.69;4952452;29;20444;-39
2022/01/18 05:57:52;;;;;;;25.93;14.73;;;4.40;99.90;;;4.72;73.92;99505.59;4951769;29;20418;-39
2022/01/18 06:00:23;;;;;;;24.23;14.93;;;4.50;99.90;;;4.71;73.09;99505.66;4951834;29;20059;-39
2022/01/18 06:08:18;;;;;;;24.40;14.23;;;4.50;99.90;;;4.73;73.32;99506.47;4951319;29;20054;-39
2022/01/18 06:10:46;;;;;;;29.90;15.03;;;4.50;99.90;;;4.74;74.08;99506.38;4951525;29;20045;-39
2022/01/18 06:13:14;;;;;;;24.77;13.07;;;4.50;99.90;;;4.76;73.84;99511.56;4951635;29;20054;-39
2022/01/18 06:15:43;;;;;;;28.07;13.77;;;4.50;99.90;;;4.78;73.35;99517.63;4952178;29;20055;-39
2022/01/18 06:18:12;;;;;;;29.70;14.60;;;4.50;99.90;;;4.78;73.39;99520.25;4951711;29;20082;-39
2022/01/18 06:20:40;;;;;;;25.23;14.90;;;4.50;99.90;;;4.80;73.51;99514.91;4951252;29;20050;-39
2022/01/18 06:23:08;;;;;;;25.67;13.87;;;4.60;99.90;;;4.81;73.97;99517.47;4952073;29;20046;-39
2022/01/18 06:25:38;;;;;;;28.67;15.13;;;4.60;99.90;;;4.79;73.26;99519.34;4934820;29;20051;-39
2022/01/18 06:28:07;;;;;;;27.43;16.13;;;4.60;99.90;;;4.77;73.44;99521.22;4950476;29;20055;-39
2022/01/18 06:30:35;;;;;;;27.43;14.20;;;4.50;99.90;;;4.76;73.74;99524.75;4952777;29;20513;-39
2022/01/18 06:33:03;;;;;;;28.27;14.93;;;4.50;99.90;;;4.75;73.53;99525.72;4950907;29;20058;-40
2022/01/18 06:35:32;;;;;;;30.83;15.10;;;4.50;99.90;;;4.74;72.98;99531.91;4951009;29;20617;-39
2022/01/18 06:38:00;;;;;;;29.67;16.43;;;4.40;99.90;;;4.76;73.40;99542.41;4951622;29;20062;-39
2022/01/18 06:40:29;;;;;;;30.03;16.00;;;4.50;99.90;;;4.76;73.07;99537.13;4950765;29;20059;-39
2022/01/18 06:42:57;;;;;;;26.23;14.87;;;4.50;99.90;;;4.75;73.76;99541.56;4949861;29;20073;-39
2022/01/18 06:45:25;;;;;;;30.87;15.93;;;4.50;99.90;;;4.74;73.07;99550.38;4951741;29;20361;-39
2022/01/18 06:47:53;;;;;;;30.90;15.43;;;4.50;99.90;;;4.76;73.83;99545.88;4950584;29;20229;-39
2022/01/18 06:50:22;;;;;;;26.43;15.00;;;4.50;99.90;;;4.75;72.87;99554.75;4950893;29;20043;-39
2022/01/18 06:52:54;;;;;;;27.33;16.80;;;4.50;99.90;;;4.75;73.04;99549.47;4951029;29;20458;-38
2022/01/18 06:55:22;;;;;;;28.40;16.77;;;4.50;99.90;;;4.78;73.75;99551.09;4951325;29;20047;-39
2022/01/18 06:57:50;;;;;;;29.07;16.30;;;4.50;99.90;;;4.74;73.79;99555.66;4950715;29;20065;-38
2022/01/18 07:00:19;;;;;;;30.30;18.60;;;4.50;99.90;;;4.76;73.46;99563.50;4952259;29;20337;-39
2022/01/18 07:02:47;;;;;;;30.10;17.33;;;4.50;99.90;;;4.76;72.98;99567.00;4950046;28;20069;-39
2022/01/18 07:05:16;;;;;;;32.83;17.43;;;4.50;99.90;;;4.74;72.81;99561.78;4950126;29;20065;-39
2022/01/18 07:07:47;;;;;;;32.40;17.67;;;4.50;99.90;;;4.72;73.25;99568.06;4951002;29;20381;-40
2022/01/18 07:10:16;;;;;;;30.33;16.87;;;4.40;99.90;;;4.69;72.86;99569.09;4950486;29;20047;-40
2022/01/18 07:12:44;;;;;;;30.00;15.27;;;4.40;99.90;;;4.70;73.77;99562.88;4949160;29;20062;-40
2022/01/18 07:15:14;;;;;;;35.30;19.00;;;4.40;99.90;;;4.70;73.72;99575.22;4948757;29;20232;-40
2022/01/18 07:17:42;;;;;;;32.40;18.97;;;4.40;99.90;;;4.69;73.72;99581.41;4948862;29;20043;-40
2022/01/18 07:20:11;;;;;;;31.93;18.43;;;4.40;99.90;;;4.67;73.27;99575.34;4950564;29;20073;-39
2022/01/18 07:22:42;;;;;;;31.03;17.83;;;4.40;99.90;;;4.67;72.87;99585.91;4949630;29;20057;-39
2022/01/18 07:25:12;;;;;;;28.27;15.47;;;4.30;99.90;;;4.64;73.83;99576.38;4949721;29;20070;-39
2022/01/18 07:27:44;;;;;;;38.60;16.63;;;4.30;99.90;;;4.62;73.12;99578.25;4950004;29;20484;-39
2022/01/18 07:30:12;;;;;;;30.33;17.97;;;4.30;99.90;;;4.64;73.70;99578.16;4948759;29;20055;-39
2022/01/18 07:32:41;;;;;;;35.60;18.00;;;4.30;99.90;;;4.65;73.54;99582.50;4950269;29;20055;-39
2022/01/18 07:35:11;;;;;;;30.13;16.70;;;4.30;99.90;;;4.64;73.23;99586.09;4950681;29;20067;-39
2022/01/18 07:37:40;;;;;;;35.73;17.57;;;4.30;99.90;;;4.65;73.69;99593.94;4948985;29;20051;-39
2022/01/18 07:40:09;;;;;;;31.77;16.50;;;4.30;99.90;;;4.64;73.85;99592.22;4951716;29;20051;-39
2022/01/18 07:42:37;;;;;;;31.53;16.07;;;4.30;99.90;;;4.66;73.32;99594.78;4950579;29;20222;-39
2022/01/18 07:45:06;;;;;;;35.40;17.13;;;4.30;99.90;;;4.66;73.17;99587.72;4933386;29;20066;-39
2022/01/18 07:47:34;;;;;;;31.57;17.07;;;4.40;99.90;;;4.68;73.42;99595.56;4950275;29;20245;-39
2022/01/18 07:50:03;;;;;;;31.73;17.67;;;4.40;99.90;;;4.71;73.53;99598.91;4949655;29;20051;-39
2022/01/18 07:52:35;;;;;;;32.50;18.23;;;4.50;99.90;;;4.76;73.54;99601.28;4949734;29;20063;-39
2022/01/18 07:55:05;;;;;;;33.03;18.03;;;4.50;99.90;;;4.78;73.05;99594.16;4949596;29;20047;-39
2022/01/18 07:57:37;;;;;;;32.10;16.90;;;4.50;99.90;;;4.75;72.88;99602.25;4948350;29;20387;-39
2022/01/18 08:00:06;;;;;;;32.90;17.97;;;4.50;99.90;;;4.74;73.21;99603.16;4949779;29;20058;-39
2022/01/18 08:02:42;;;;;;;38.03;18.43;;;4.50;99.90;;;4.76;73.12;99605.72;4942004;29;20237;-39
2022/01/18 08:05:13;;;;;;;31.80;19.07;;;4.50;99.90;;;4.80;73.61;99604.63;4950644;29;20383;-39
2022/01/18 08:07:42;;;;;;;33.97;18.87;;;4.60;99.90;;;4.84;73.37;99607.03;4941905;29;20054;-39
2022/01/18 08:10:12;;;;;;;31.30;17.47;;;4.60;99.90;;;4.87;73.11;99604.25;4947686;29;20081;-39
2022/01/18 08:12:41;;;;;;;35.87;18.97;;;4.70;99.90;;;4.90;73.65;99604.13;4941879;29;20053;-39
2022/01/18 08:15:14;;;;;;;29.73;15.70;;;4.70;99.90;;;4.90;73.18;99605.88;4948406;28;20042;-39
2022/01/18 08:17:54;;;;;;;27.83;16.27;;;4.70;99.90;;;4.88;72.94;99605.94;4949901;29;20059;-39
2022/01/18 08:20:22;;;;;;;31.97;14.93;;;4.60;99.90;;;4.86;73.06;99610.44;4950156;29;20460;-39
2022/01/18 08:22:50;;;;;;;30.30;16.27;;;4.60;99.90;;;4.88;73.31;99615.66;4948767;29;20051;-39
2022/01/18 08:25:18;;;;;;;37.20;19.73;;;4.60;99.90;;;4.92;73.59;99609.28;4949145;29;20063;-39
2022/01/18 08:27:46;;;;;;;35.63;19.13;;;4.70;99.90;;;4.97;73.90;99606.44;4949775;29;20349;-39
2022/01/18 08:30:19;;;;;;;38.97;21.07;;;4.80;99.90;;;5.02;72.95;99613.19;4932563;29;20233;-39
2022/01/18 08:32:49;;;;;;;37.77;18.97;;;4.90;99.90;;;5.06;73.70;99616.50;4950080;29;20210;-39
2022/01/18 08:35:25;;;;;;;34.10;18.67;;;4.90;99.90;;;5.09;73.47;99604.00;5113690;27;20415;-39
2022/01/18 08:37:53;;;;;;;27.27;15.30;;;4.90;99.90;;;5.11;73.25;99609.22;5102898;28;20054;-39
2022/01/18 08:40:22;;;;;;;25.83;13.70;;;4.90;99.90;;;5.12;73.10;99610.94;5103278;28;20058;-39
2022/01/18 08:42:50;;;;;;;32.50;15.00;;;4.90;99.90;;;5.13;73.58;99610.81;5104699;28;20056;-40
2022/01/18 08:45:18;;;;;;;28.37;14.67;;;4.90;99.90;;;5.17;72.80;99616.81;5103911;28;20052;-40
2022/01/18 08:47:49;;;;;;;26.43;15.83;;;5.00;99.90;;;5.20;73.12;99615.81;5103906;28;20043;-39
2022/01/18 08:50:19;;;;;;;25.73;13.70;;;5.00;99.90;;;5.22;73.47;99614.81;5104563;28;20047;-40
2022/01/18 08:52:51;;;;;;;23.00;12.50;;;5.10;99.90;;;5.23;73.10;99624.41;5103984;28;20056;-39
2022/01/18 08:55:20;;;;;;;24.33;12.80;;;5.10;99.90;;;5.23;73.19;99611.22;5103441;28;20044;-39
2022/01/18 08:57:49;;;;;;;28.33;13.70;;;5.00;99.90;;;5.25;72.84;99616.41;5104544;28;20066;-39
2022/01/18 09:00:19;;;;;;;28.50;13.03;;;5.00;99.90;;;5.28;72.81;99622.41;5094280;28;20063;-40
2022/01/18 09:02:48;;;;;;;22.93;12.13;;;5.10;99.90;;;5.31;72.73;99616.97;5091942;28;20062;-39
2022/01/18 09:05:21;;;;;;;27.57;13.67;;;5.10;99.90;;;5.33;72.30;99623.03;5093061;28;20354;-39
2022/01/18 09:07:51;;;;;;;24.53;11.47;;;5.20;99.90;;;5.36;72.63;99616.72;5092870;28;20357;-39
2022/01/18 09:10:25;;;;;;;22.00;12.87;;;5.20;99.90;;;5.36;73.42;99619.34;5092437;28;20062;-40
2022/01/18 09:12:53;;;;;;;26.77;15.57;;;5.20;99.90;;;5.39;72.48;99618.34;5091544;28;20229;-39
2022/01/18 09:15:22;;;;;;;24.37;14.13;;;5.20;99.90;;;5.41;73.40;99616.47;5092793;28;20040;-39
2022/01/18 09:17:50;;;;;;;26.70;15.17;;;5.30;99.90;;;5.46;72.84;99617.94;5092452;28;20352;-39
2022/01/18 09:20:19;;;;;;;32.43;19.63;;;5.30;99.90;;;5.48;72.38;99612.56;5087756;28;20050;-39
2022/01/18 09:22:48;;;;;;;32.67;20.03;;;5.40;99.90;;;5.52;72.81;99615.00;5083286;28;20056;-39
2022/01/18 09:25:23;;;;;;;43.37;21.10;;;5.40;99.90;;;5.56;72.43;99612.19;5083747;28;20067;-39
2022/01/18 09:27:53;;;;;;;31.60;19.13;;;5.40;99.90;;;5.57;72.36;99620.03;5081820;28;20056;-39
2022/01/18 09:30:26;;;;;;;27.07;15.60;;;5.40;99.90;;;5.62;72.71;99627.69;5083475;28;20044;-39
2022/01/18 09:32:56;;;;;;;27.33;13.77;;;5.50;99.90;;;5.61;72.12;99626.00;5097146;28;20052;-39
2022/01/18 09:35:25;;;;;;;30.20;15.37;;;5.40;99.90;;;5.63;72.35;99629.41;5083000;28;20056;-39
2022/01/18 09:37:54;;;;;;;28.53;16.73;;;5.50;99.90;;;5.65;72.85;99630.19;5084440;28;20062;-39
2022/01/18 09:40:23;;;;;;;30.37;16.50;;;5.50;99.90;;;5.67;72.14;99629.16;5082647;28;20048;-41
2022/01/18 09:42:58;;;;;;;27.67;16.70;;;5.50;99.90;;;5.69;72.46;99627.28;5082161;28;20055;-39
2022/01/18 09:45:29;;;;;;;40.00;23.63;;;5.50;99.90;;;5.70;72.47;99630.81;5076388;28;20066;-39
2022/01/18 09:47:59;;;;;;;35.13;18.70;;;5.60;99.90;;;5.68;72.22;99632.66;5069168;28;20342;-39
2022/01/18 09:50:33;;;;;;;31.03;13.70;;;5.60;99.90;;;5.71;72.28;99632.50;5070077;28;20358;-40
2022/01/18 09:53:04;;;;;;;27.95;12.60;;;5.60;99.90;;;5.71;72.11;99621.94;5068655;28;20053;-39
2022/01/18 09:55:35;;;;;;;19.80;12.77;;;5.50;99.90;;;5.74;71.44;99632.34;5068395;28;20057;-40
2022/01/18 09:58:09;;;;;;;22.70;12.53;;;5.60;99.90;;;5.77;72.42;99628.69;5069005;28;20044;-39
2022/01/18 10:00:41;;;;;;;27.67;13.50;;;5.70;99.90;;;5.79;72.52;99630.28;5069297;28;20058;-39
2022/01/18 10:03:43;;;;;;;23.50;13.80;;;5.60;99.90;;;5.81;71.88;99625.78;5068994;28;20048;-39
2022/01/18 10:06:11;;;;;;;20.53;12.13;;;5.70;99.90;;;5.83;72.01;99623.91;5034970;28;20091;-39
2022/01/18 10:08:46;;;;;;;27.87;16.43;;;5.70;99.90;;;5.87;72.45;99627.25;5049195;28;20048;-39
2022/01/18 10:11:17;;;;;;;27.80;16.13;;;5.70;99.90;;;5.91;71.72;99627.00;5049932;28;20407;-39
2022/01/18 10:13:49;;;;;;;22.67;13.90;;;5.80;99.90;;;5.94;72.29;99625.97;5048520;28;20063;-40
2022/01/18 10:16:21;;;;;;;22.73;14.03;;;5.80;99.90;;;5.97;72.15;99622.34;5046880;28;20083;-39
2022/01/18 10:19:08;;;;;;;22.40;12.33;;;5.80;99.90;;;5.98;72.46;99624.91;5048167;28;20365;-39
2022/01/18 10:21:46;;;;;;;21.30;11.87;;;5.90;99.90;;;6.01;72.13;99630.03;5048109;28;20057;-39
2022/01/18 10:24:23;;;;;;;24.13;12.90;;;5.90;99.90;;;6.02;72.13;99622.94;5049574;28;20052;-39
2022/01/18 10:26:54;;;;;;;22.43;12.87;;;5.90;99.90;;;6.05;72.31;99622.78;5047841;28;20430;-39
2022/01/18 10:29:33;;;;;;;24.27;12.77;;;5.90;99.90;;;6.07;71.67;99613.81;5047290;28;20393;-39
2022/01/18 10:32:17;;;;;;;22.83;11.83;;;6.00;99.90;;;6.09;71.97;99613.75;5048489;28;20053;-39
2022/01/18 10:37:25;;;;;;;23.30;11.17;;;6.10;99.90;;;6.14;71.64;99608.19;5048483;28;20329;-39
2022/01/18 10:39:59;;;;;;;23.70;12.57;;;6.10;99.90;;;6.11;71.65;99607.44;5047435;28;20051;-39
2022/01/18 10:42:51;;;;;;;17.95;10.43;;;6.10;99.90;;;6.10;71.18;99605.69;5047969;28;20049;-39
2022/01/18 10:45:35;;;;;;;18.50;9.50;;;6.10;99.90;;;6.14;71.41;99600.25;5047380;28;20496;-41
2022/01/18 10:48:11;;;;;;;16.10;10.60;;;6.10;99.90;;;6.13;71.36;99594.13;5048363;28;20098;-40
2022/01/18 10:50:45;;;;;;;17.77;10.93;;;6.10;99.90;;;6.14;71.68;99589.69;5048261;28;20049;-40
2022/01/18 10:53:20;;;;;;;18.77;10.93;;;6.10;99.90;;;6.18;71.56;99593.84;5048145;28;20064;-40
2022/01/18 10:56:11;;;;;;;19.53;12.43;;;6.10;99.90;;;6.20;71.52;99597.25;5047271;28;20049;-40
2022/01/18 10:58:55;;;;;;;23.13;13.60;;;6.10;99.90;;;6.20;71.34;99590.19;5047653;28;20041;-40
2022/01/18 11:01:23;;;;;;;;;;;6.00;99.90;;;6.20;71.46;99587.53;5047821;28;20055;-40
2022/01/18 11:04:15;;;;;;;20.37;11.63;;;6.10;99.90;;;6.25;71.59;99584.66;5047241;28;19925;-39
2022/01/18 11:07:01;;;;;;;18.03;11.00;;;6.10;99.90;;;6.28;71.26;99580.03;5047636;28;20045;-40
2022/01/18 11:09:30;;;;;;;19.80;10.90;;;6.30;99.90;;;6.33;71.01;99579.78;5048778;28;20115;-40
2022/01/18 11:11:59;;;;;;;16.03;9.77;;;6.20;99.90;;;6.36;70.89;99570.78;5047991;28;20049;-39
2022/01/18 11:14:29;;;;;;;23.93;9.60;;;6.30;99.90;;;6.37;71.25;99576.00;5047655;28;20393;-40
2022/01/18 11:16:59;;;;;;;12.97;8.10;;;6.30;99.90;;;6.36;71.20;99568.16;5047796;28;20056;-39
2022/01/18 11:19:31;;;;;;;17.37;10.07;;;6.40;99.90;;;6.31;70.47;99563.97;5046030;28;20053;-39
2022/01/18 11:22:07;;;;;;;15.77;7.93;;;6.40;99.90;;;6.24;70.55;99562.66;5046946;28;20063;-39
2022/01/18 11:24:41;;;;;;;22.17;12.93;;;6.30;99.90;;;6.23;70.71;99560.06;5047164;28;20067;-39
2022/01/18 11:27:14;;;;;;;18.63;9.60;;;6.20;99.90;;;6.27;70.22;99566.91;5046862;28;20045;-39
2022/01/18 11:29:49;;;;;;;15.30;8.68;;;6.20;99.90;;;6.31;70.75;99560.50;5046457;28;20055;-39
2022/01/18 11:32:18;;;;;;;17.13;9.53;;;6.40;99.90;;;6.39;70.56;99560.06;5046441;28;20045;-40
2022/01/18 11:35:07;;;;;;;16.20;8.03;;;6.30;99.90;;;6.39;70.50;99563.53;5046842;28;20040;-39
2022/01/18 11:38:19;;;;;;;18.97;10.37;;;6.40;99.90;;;6.44;70.31;99560.66;5048027;28;20049;-39
2022/01/18 11:40:57;;;;;;;13.70;8.20;;;6.40;99.90;;;6.48;70.44;99551.59;5016393;28;20258;-39
2022/01/18 11:43:44;;;;;;;11.23;7.10;;;6.50;99.90;;;6.51;70.25;99554.03;5046177;28;20063;-39
2022/01/18 11:46:34;;;;;;;8.20;5.50;;;6.50;99.90;;;6.50;70.45;99542.63;5045762;28;20366;-39
2022/01/18 11:49:22;;;;;;;13.07;6.60;;;6.50;99.90;;;6.55;70.50;99555.56;5045998;28;20066;-38
2022/01/18 11:51:59;;;;;;;16.87;9.47;;;6.50;99.90;;;6.58;70.13;99549.25;5046959;28;20052;-38